Time;durP1;ratioP1;P1;durP2;ratioP2;P2;SDS_P1;SDS_P2;PMS_P1;PMS_P2;Temp;Humidity;BMP_temperature;BMP_pressure;BME280_temperature;BME280_humidity;BME280_pressure;Samples;Min_cycle;Max_cycle;Signal;HPM_P1;HPM_P2
2023/08/24 00:01:50;;;;;;;7.40;5.10;;;25.80;81.80;;;;;;5115381;28;20027;-64
2023/08/24 00:04:16;;;;;;;6.53;5.22;;;25.80;81.70;;;;;;5081563;28;20031;-65
2023/08/24 00:06:42;;;;;;;8.07;5.68;;;25.80;81.70;;;;;;5097028;28;20024;-66
2023/08/24 00:09:08;;;;;;;8.10;5.05;;;25.80;81.60;;;;;;5115238;28;20105;-65
2023/08/24 00:11:34;;;;;;;10.38;5.70;;;25.80;81.90;;;;;;5115205;28;20426;-66
2023/08/24 00:13:59;;;;;;;8.35;5.38;;;25.80;81.80;;;;;;5115237;28;20035;-66
2023/08/24 00:16:25;;;;;;;8.77;6.00;;;25.80;81.90;;;;;;5115538;28;20019;-66
2023/08/24 00:18:50;;;;;;;7.30;5.93;;;25.80;82.00;;;;;;5115070;28;20375;-66
2023/08/24 00:21:17;;;;;;;6.45;5.07;;;25.70;82.30;;;;;;5115394;28;20034;-66
2023/08/24 00:23:43;;;;;;;8.90;5.20;;;25.70;82.40;;;;;;5114950;28;20102;-66
2023/08/24 00:26:09;;;;;;;8.35;5.80;;;25.70;82.60;;;;;;5115265;28;20051;-66
2023/08/24 00:28:35;;;;;;;11.05;5.85;;;25.70;82.50;;;;;;5114853;28;20085;-66
2023/08/24 00:31:01;;;;;;;8.38;5.43;;;25.70;82.70;;;;;;5115370;28;20036;-66
2023/08/24 00:33:26;;;;;;;9.48;5.95;;;25.70;82.70;;;;;;5125917;27;20031;-66
2023/08/24 00:35:52;;;;;;;10.45;6.00;;;25.60;83.30;;;;;;5135430;27;20106;-66
2023/08/24 00:38:18;;;;;;;8.82;5.65;;;25.70;83.90;;;;;;5135709;27;20033;-65
2023/08/24 00:40:43;;;;;;;9.70;5.80;;;25.70;84.40;;;;;;5135358;27;20034;-66
2023/08/24 00:43:09;;;;;;;7.25;5.82;;;25.60;85.30;;;;;;5135931;27;20040;-66
2023/08/24 00:45:36;;;;;;;10.65;6.18;;;25.60;85.20;;;;;;5135181;27;20516;-69
2023/08/24 00:48:02;;;;;;;8.10;6.25;;;25.60;85.40;;;;;;5135474;27;20023;-65
2023/08/24 00:50:27;;;;;;;8.40;5.85;;;25.50;85.90;;;;;;5135146;27;20054;-65
2023/08/24 00:52:53;;;;;;;8.13;5.88;;;25.60;86.00;;;;;;5134916;27;20028;-64
2023/08/24 00:55:20;;;;;;;10.70;5.57;;;25.50;86.20;;;;;;5135277;27;20456;-64
2023/08/24 00:57:47;;;;;;;8.23;6.07;;;25.50;86.60;;;;;;5134881;27;20031;-65
2023/08/24 01:00:13;;;;;;;8.50;5.85;;;25.50;86.30;;;;;;5135566;27;20027;-64
2023/08/24 01:02:39;;;;;;;9.85;6.00;;;25.50;86.20;;;;;;5134812;27;20039;-65
2023/08/24 01:05:06;;;;;;;12.05;5.68;;;25.50;86.00;;;;;;5134776;27;20023;-64
2023/08/24 01:07:33;;;;;;;6.80;5.85;;;25.50;86.30;;;;;;5135094;27;20023;-64
2023/08/24 01:09:59;;;;;;;11.73;6.07;;;25.50;85.80;;;;;;5134112;27;20098;-66
2023/08/24 01:13:00;;;;;;;10.00;5.00;;;25.50;85.70;;;;;;5135099;27;20027;-66
2023/08/24 01:16:06;;;;;;;7.05;5.75;;;25.50;85.60;;;;;;5134992;27;20027;-66
2023/08/24 01:18:33;;;;;;;7.70;5.68;;;25.50;85.40;;;;;;5076322;27;20383;-66
2023/08/24 01:20:59;;;;;;;10.48;5.88;;;25.50;85.60;;;;;;5134454;27;20030;-66
2023/08/24 01:23:37;;;;;;;10.55;5.88;;;25.50;85.60;;;;;;5116262;27;20019;-65
2023/08/24 01:26:11;;;;;;;7.07;5.60;;;25.50;85.70;;;;;;5134424;27;20098;-64
2023/08/24 01:28:37;;;;;;;9.20;6.50;;;25.50;85.90;;;;;;5134636;27;20030;-66
2023/08/24 01:31:05;;;;;;;9.23;5.57;;;25.40;85.80;;;;;;5134150;27;20037;-66
2023/08/24 01:33:30;;;;;;;10.02;6.07;;;25.50;86.00;;;;;;5135000;27;20023;-65
2023/08/24 01:35:56;;;;;;;11.30;5.88;;;25.40;86.10;;;;;;5134427;27;20042;-64
2023/08/24 01:38:22;;;;;;;7.60;5.80;;;25.40;86.30;;;;;;5134385;27;20066;-65
2023/08/24 01:41:09;;;;;;;9.25;5.85;;;25.40;86.10;;;;;;5130238;27;20072;-65
2023/08/24 01:43:36;;;;;;;7.43;5.90;;;25.40;86.20;;;;;;5134381;27;20095;-65
2023/08/24 01:46:07;;;;;;;7.60;5.93;;;25.40;86.20;;;;;;5133644;27;20519;-65
2023/08/24 01:48:33;;;;;;;;;;;25.40;87.00;;;;;;5134334;27;20038;-65
2023/08/24 01:51:01;;;;;;;10.27;5.90;;;25.40;89.70;;;;;;5134073;27;20260;-65
2023/08/24 01:53:30;;;;;;;11.15;5.85;;;25.50;90.70;;;;;;5134207;27;20115;-65
2023/08/24 01:55:56;;;;;;;8.10;6.05;;;25.40;91.10;;;;;;5133736;27;20429;-65
2023/08/24 01:58:21;;;;;;;16.88;7.28;;;25.40;91.60;;;;;;5134379;27;20031;-66
2023/08/24 02:00:47;;;;;;;7.63;5.47;;;25.40;92.00;;;;;;5133711;27;20390;-65
2023/08/24 02:03:12;;;;;;;10.02;6.70;;;25.40;92.20;;;;;;5133771;27;20037;-65
2023/08/24 02:05:38;;;;;;;8.38;6.35;;;25.40;92.90;;;;;;5134388;27;20023;-65
2023/08/24 02:08:04;;;;;;;9.38;6.07;;;25.30;93.00;;;;;;5133572;27;20046;-65
2023/08/24 02:10:29;;;;;;;7.60;5.97;;;25.30;93.30;;;;;;5134113;27;20019;-65
2023/08/24 02:12:55;;;;;;;10.57;6.68;;;25.30;93.70;;;;;;5133625;27;20375;-65
2023/08/24 02:15:21;;;;;;;13.63;6.53;;;25.30;93.80;;;;;;5134282;27;20034;-65
2023/08/24 02:17:46;;;;;;;9.50;6.22;;;25.30;93.80;;;;;;5133526;27;20375;-65
2023/08/24 02:20:12;;;;;;;10.82;6.93;;;25.30;93.70;;;;;;5133629;27;20020;-66
2023/08/24 02:22:38;;;;;;;10.20;6.38;;;25.20;93.80;;;;;;5132768;27;20111;-65
2023/08/24 02:25:05;;;;;;;8.75;6.22;;;25.20;93.60;;;;;;5133451;27;20300;-65
2023/08/24 02:27:31;;;;;;;6.65;5.75;;;25.20;93.40;;;;;;5133725;27;20031;-65
2023/08/24 02:29:57;;;;;;;7.72;6.05;;;25.10;93.00;;;;;;5133353;28;20042;-65
2023/08/24 02:32:23;;;;;;;7.85;5.85;;;25.20;92.90;;;;;;5133344;28;20027;-65
2023/08/24 02:34:48;;;;;;;9.05;6.20;;;25.10;93.00;;;;;;5133196;28;20102;-65
2023/08/24 02:37:14;;;;;;;9.23;5.78;;;25.10;93.10;;;;;;5133727;28;20027;-65
2023/08/24 02:39:40;;;;;;;7.10;6.03;;;25.10;93.30;;;;;;5133656;28;20039;-65
2023/08/24 02:42:05;;;;;;;10.90;6.13;;;25.10;93.50;;;;;;5133163;28;20043;-65
2023/08/24 02:44:31;;;;;;;8.57;6.53;;;25.10;93.60;;;;;;5133637;28;20416;-66
2023/08/24 02:46:57;;;;;;;10.30;6.20;;;25.10;93.90;;;;;;5133205;28;20027;-65
2023/08/24 02:49:23;;;;;;;7.35;6.13;;;25.00;93.70;;;;;;5133204;28;20059;-65
2023/08/24 02:51:48;;;;;;;7.22;5.93;;;25.00;93.90;;;;;;5133156;28;20083;-65
2023/08/24 02:54:14;;;;;;;8.90;6.05;;;25.00;94.00;;;;;;5133488;28;20020;-65
2023/08/24 02:56:40;;;;;;;8.07;5.57;;;25.00;94.00;;;;;;5133172;28;20106;-65
2023/08/24 02:59:06;;;;;;;8.85;6.13;;;24.90;93.90;;;;;;5132973;28;20027;-65
2023/08/24 03:01:31;;;;;;;7.30;5.68;;;24.90;94.10;;;;;;5133378;28;20028;-65
2023/08/24 03:03:57;;;;;;;7.10;5.97;;;24.90;94.30;;;;;;5133058;28;20027;-65
2023/08/24 03:06:24;;;;;;;10.05;6.53;;;24.80;94.30;;;;;;5133775;28;20027;-64
2023/08/24 03:08:50;;;;;;;8.35;6.85;;;24.80;94.50;;;;;;5132553;28;20509;-67
2023/08/24 03:11:15;;;;;;;11.65;6.32;;;24.70;94.70;;;;;;5133043;28;20031;-65
2023/08/24 03:13:41;;;;;;;8.20;6.25;;;24.70;95.10;;;;;;5133454;28;20038;-65
2023/08/24 03:16:08;;;;;;;9.25;5.78;;;24.60;95.20;;;;;;5132930;28;20023;-65
2023/08/24 03:18:33;;;;;;;9.35;6.45;;;24.60;95.20;;;;;;5114871;28;20111;-65
2023/08/24 03:21:00;;;;;;;6.78;5.65;;;24.60;95.30;;;;;;5132601;28;20073;-65
2023/08/24 03:23:26;;;;;;;9.88;6.07;;;24.60;95.20;;;;;;5133261;28;20030;-65
2023/08/24 03:25:51;;;;;;;8.43;6.40;;;24.50;95.50;;;;;;5132660;28;20051;-66
2023/08/24 03:28:17;;;;;;;8.15;6.25;;;24.50;95.80;;;;;;5132948;28;20023;-65
2023/08/24 03:30:48;;;;;;;8.93;6.20;;;24.50;95.90;;;;;;5133495;28;20031;-65
2023/08/24 03:33:13;;;;;;;;;;;24.50;96.00;;;;;;5134933;27;20035;-66
2023/08/24 03:35:40;;;;;;;8.88;5.95;;;24.40;96.20;;;;;;5136760;27;20009;-65
2023/08/24 03:38:05;;;;;;;11.43;6.38;;;24.40;96.30;;;;;;5136698;27;20080;-66
2023/08/24 03:40:31;;;;;;;8.75;6.03;;;24.40;96.10;;;;;;5136909;27;20023;-66
2023/08/24 03:42:57;;;;;;;10.10;6.65;;;24.40;96.00;;;;;;5136134;27;20463;-66
2023/08/24 03:45:23;;;;;;;14.20;7.10;;;24.40;95.90;;;;;;5136808;27;20127;-66
2023/08/24 03:47:48;;;;;;;9.82;6.40;;;24.40;95.90;;;;;;5119333;27;20055;-65
2023/08/24 03:50:14;;;;;;;8.23;6.10;;;24.30;96.20;;;;;;5115283;28;20047;-66
2023/08/24 03:52:40;;;;;;;8.00;6.93;;;24.30;96.30;;;;;;5097731;28;20035;-66
2023/08/24 03:55:09;;;;;;;9.95;6.70;;;24.30;96.10;;;;;;5115851;28;20031;-65
2023/08/24 03:57:34;;;;;;;9.50;6.53;;;24.30;96.10;;;;;;5115913;28;20019;-65
2023/08/24 04:00:00;;;;;;;10.30;7.22;;;24.30;96.20;;;;;;5115725;28;20073;-65
2023/08/24 04:02:26;;;;;;;12.93;7.55;;;24.30;96.10;;;;;;5115529;28;20028;-65
2023/08/24 04:04:52;;;;;;;7.75;6.78;;;24.30;96.10;;;;;;5129335;27;20031;-65
2023/08/24 04:07:18;;;;;;;10.35;7.10;;;24.30;96.30;;;;;;5136278;27;20050;-67
2023/08/24 04:09:45;;;;;;;10.63;6.72;;;24.30;96.10;;;;;;5135807;27;20085;-66
2023/08/24 04:12:11;;;;;;;7.47;6.60;;;24.30;96.40;;;;;;5135314;27;20023;-67
2023/08/24 04:14:37;;;;;;;11.52;6.35;;;24.20;96.60;;;;;;5132605;27;20076;-67
2023/08/24 04:17:03;;;;;;;13.35;6.70;;;24.20;96.60;;;;;;5135550;27;20028;-66
2023/08/24 04:19:29;;;;;;;11.43;8.07;;;24.20;96.80;;;;;;5135179;27;20431;-65
2023/08/24 04:21:54;;;;;;;9.35;7.53;;;24.20;96.90;;;;;;5135643;27;20030;-69
2023/08/24 04:24:20;;;;;;;9.02;6.90;;;24.20;97.20;;;;;;5135783;27;20069;-65
2023/08/24 04:26:46;;;;;;;11.45;7.22;;;24.20;97.30;;;;;;5135637;27;20069;-65
2023/08/24 04:29:11;;;;;;;9.52;6.85;;;24.20;97.50;;;;;;5134634;27;20352;-65
2023/08/24 04:31:40;;;;;;;9.05;6.88;;;24.20;97.40;;;;;;5135326;27;20034;-65
2023/08/24 04:34:05;;;;;;;10.63;7.25;;;24.10;97.10;;;;;;5134349;27;20023;-65
2023/08/24 04:36:31;;;;;;;12.95;7.25;;;24.20;97.10;;;;;;5135563;27;20034;-65
2023/08/24 04:38:56;;;;;;;11.45;8.05;;;24.20;97.20;;;;;;5134619;27;20038;-67
2023/08/24 04:41:22;;;;;;;9.98;8.10;;;24.20;97.10;;;;;;5135107;27;20027;-66
2023/08/24 04:43:48;;;;;;;8.75;7.85;;;24.20;97.10;;;;;;5134353;27;20110;-65
2023/08/24 04:46:13;;;;;;;8.50;7.43;;;24.20;97.10;;;;;;5134564;27;20015;-65
2023/08/24 04:48:39;;;;;;;9.65;7.38;;;24.20;96.70;;;;;;5135429;27;20038;-65
2023/08/24 04:51:04;;;;;;;13.80;7.68;;;24.30;96.50;;;;;;5135191;27;20047;-65
2023/08/24 04:53:30;;;;;;;10.90;7.90;;;24.30;96.20;;;;;;5135371;27;20451;-65
2023/08/24 04:55:56;;;;;;;10.88;7.43;;;24.30;95.80;;;;;;5135109;27;20387;-65
2023/08/24 04:58:23;;;;;;;11.65;8.35;;;24.30;95.80;;;;;;5134953;27;20035;-65
2023/08/24 05:00:48;;;;;;;10.05;7.20;;;24.30;96.00;;;;;;5135085;27;20089;-65
2023/08/24 05:03:14;;;;;;;11.60;7.43;;;24.40;96.00;;;;;;5134649;27;20455;-64
2023/08/24 05:05:40;;;;;;;11.57;7.53;;;24.40;96.10;;;;;;5135243;27;20098;-65
2023/08/24 05:08:09;;;;;;;15.23;7.82;;;24.40;96.20;;;;;;5134936;27;20031;-66
2023/08/24 05:10:35;;;;;;;10.05;7.30;;;24.40;96.20;;;;;;5135047;27;20027;-65
2023/08/24 05:13:01;;;;;;;10.85;6.82;;;24.40;96.20;;;;;;5134741;27;20030;-66
2023/08/24 05:15:27;;;;;;;9.57;7.28;;;24.50;96.20;;;;;;5116824;27;20023;-66
2023/08/24 05:17:56;;;;;;;12.70;7.22;;;24.50;96.10;;;;;;5134296;27;20027;-66
2023/08/24 05:20:25;;;;;;;11.95;6.75;;;24.50;96.20;;;;;;5134504;27;20023;-65
2023/08/24 05:22:51;;;;;;;15.73;7.57;;;24.50;96.10;;;;;;5134634;27;20047;-66
2023/08/24 05:25:17;;;;;;;13.18;7.30;;;24.50;96.00;;;;;;5134406;27;20096;-65
2023/08/24 05:27:44;;;;;;;8.55;6.53;;;24.60;96.00;;;;;;5132323;27;20031;-65
2023/08/24 05:30:10;;;;;;;9.40;6.90;;;24.60;96.00;;;;;;5134493;27;20051;-65
2023/08/24 05:32:39;;;;;;;10.73;7.72;;;24.70;95.80;;;;;;5133962;27;20031;-65
2023/08/24 05:35:08;;;;;;;13.45;7.68;;;24.70;95.60;;;;;;5133828;27;20452;-66
2023/08/24 05:37:34;;;;;;;13.25;8.27;;;24.70;95.30;;;;;;5133989;27;20027;-65
2023/08/24 05:40:01;;;;;;;10.38;8.27;;;24.70;94.90;;;;;;5130906;27;20046;-65
2023/08/24 05:42:26;;;;;;;12.50;8.45;;;24.80;94.70;;;;;;5133896;27;20421;-65
2023/08/24 05:44:52;;;;;;;12.27;8.07;;;24.80;94.20;;;;;;5133973;27;20015;-65
2023/08/24 05:47:18;;;;;;;14.25;9.25;;;24.80;94.10;;;;;;5132915;27;20031;-66
2023/08/24 05:49:43;;;;;;;13.05;7.90;;;24.90;93.80;;;;;;5133165;27;20518;-66
2023/08/24 05:52:09;;;;;;;10.85;8.07;;;24.90;93.60;;;;;;5133228;27;20448;-66
2023/08/24 05:54:36;;;;;;;11.65;8.75;;;25.00;93.60;;;;;;5133678;27;20371;-66
2023/08/24 05:57:03;;;;;;;14.73;8.60;;;25.10;93.60;;;;;;5132388;27;20023;-66
2023/08/24 05:59:29;;;;;;;12.85;7.88;;;25.30;93.10;;;;;;5134168;27;20356;-66
2023/08/24 06:01:55;;;;;;;15.40;7.90;;;25.40;92.80;;;;;;5133965;27;20034;-65
2023/08/24 06:04:21;;;;;;;13.88;8.68;;;25.70;92.20;;;;;;5133304;27;20030;-65
2023/08/24 06:06:46;;;;;;;15.98;8.95;;;25.80;91.50;;;;;;5133406;27;20035;-67
2023/08/24 06:09:12;;;;;;;13.77;8.02;;;26.10;91.00;;;;;;5133571;27;20042;-66
2023/08/24 06:11:38;;;;;;;11.43;8.52;;;26.30;89.60;;;;;;5133628;27;20149;-66
2023/08/24 06:14:03;;;;;;;15.93;7.38;;;26.60;86.80;;;;;;5133706;27;20038;-66
2023/08/24 06:16:29;;;;;;;10.73;7.82;;;26.90;85.20;;;;;;5133039;27;20539;-65
2023/08/24 06:18:55;;;;;;;14.45;7.70;;;27.20;82.70;;;;;;5133732;27;20102;-66
2023/08/24 06:21:21;;;;;;;10.77;6.80;;;27.50;81.00;;;;;;5133383;27;20021;-65
2023/08/24 06:23:47;;;;;;;11.52;7.43;;;27.90;78.40;;;;;;5133727;27;20366;-65
2023/08/24 06:26:13;;;;;;;8.63;7.43;;;28.10;75.70;;;;;;5132966;27;20482;-66
2023/08/24 06:28:39;;;;;;;11.45;7.13;;;28.20;75.30;;;;;;5132987;28;20114;-65
2023/08/24 06:31:07;;;;;;;13.80;7.43;;;28.50;73.90;;;;;;5133864;28;20115;-65
2023/08/24 06:33:36;;;;;;;12.63;7.13;;;28.60;73.20;;;;;;5133557;28;20066;-66
2023/08/24 06:36:06;;;;;;;12.27;7.32;;;28.90;72.30;;;;;;5133442;28;20102;-65
2023/08/24 06:38:32;;;;;;;15.35;7.18;;;29.00;71.50;;;;;;5133223;28;20031;-65
2023/08/24 06:40:58;;;;;;;12.20;6.63;;;29.20;70.70;;;;;;5133089;28;20114;-66
2023/08/24 06:43:25;;;;;;;9.93;6.95;;;29.40;69.60;;;;;;5132850;28;20398;-66
2023/08/24 06:45:50;;;;;;;11.23;7.10;;;29.60;68.90;;;;;;5132962;28;20029;-66
2023/08/24 06:48:17;;;;;;;11.18;6.90;;;29.80;68.80;;;;;;5133035;28;20027;-66
2023/08/24 06:50:43;;;;;;;10.93;6.85;;;30.00;67.90;;;;;;5133313;28;20043;-67
2023/08/24 06:53:09;;;;;;;13.38;7.20;;;30.10;67.10;;;;;;5120782;28;20031;-65
2023/08/24 06:55:34;;;;;;;12.52;6.95;;;30.30;65.70;;;;;;5117620;28;20047;-65
2023/08/24 06:58:00;;;;;;;7.68;6.57;;;30.70;65.50;;;;;;5132813;28;20027;-65
2023/08/24 07:00:26;;;;;;;10.35;6.65;;;31.00;64.40;;;;;;5122860;28;20072;-65
2023/08/24 07:02:52;;;;;;;9.43;6.63;;;31.30;62.40;;;;;;5112312;28;20361;-66
2023/08/24 07:05:18;;;;;;;11.98;6.00;;;31.80;61.20;;;;;;5111938;28;20052;-65
2023/08/24 07:07:49;;;;;;;12.10;6.78;;;32.20;61.10;;;;;;5113865;28;20081;-66
2023/08/24 07:10:15;;;;;;;10.25;6.13;;;32.90;59.40;;;;;;5116173;28;20031;-66
2023/08/24 07:12:41;;;;;;;8.70;5.70;;;33.60;57.10;;;;;;5116294;28;20028;-66
2023/08/24 07:15:07;;;;;;;8.88;5.30;;;34.40;55.40;;;;;;5116323;28;20024;-66
2023/08/24 07:17:33;;;;;;;10.50;5.65;;;35.00;54.20;;;;;;5125848;27;20024;-66
2023/08/24 07:19:58;;;;;;;10.13;5.85;;;35.70;52.30;;;;;;5136673;27;20015;-66
2023/08/24 07:22:26;;;;;;;7.25;5.43;;;36.30;51.20;;;;;;5136201;27;20099;-65
2023/08/24 07:24:52;;;;;;;10.73;4.93;;;36.90;49.40;;;;;;5136631;27;20069;-68
2023/08/24 07:27:18;;;;;;;9.68;5.45;;;37.70;48.50;;;;;;5136449;27;20027;-66
2023/08/24 07:29:44;;;;;;;11.40;5.68;;;38.30;47.00;;;;;;5136402;27;20112;-66
2023/08/24 07:32:10;;;;;;;8.15;4.60;;;38.80;45.70;;;;;;5137053;27;20066;-65
2023/08/24 07:34:36;;;;;;;5.50;4.40;;;39.40;44.40;;;;;;5136646;27;20023;-66
2023/08/24 07:37:01;;;;;;;8.77;5.25;;;39.60;42.90;;;;;;5136497;27;20023;-67
2023/08/24 07:39:27;;;;;;;8.90;4.85;;;40.10;42.30;;;;;;5136242;27;20062;-66
2023/08/24 07:41:53;;;;;;;7.50;5.32;;;40.50;41.70;;;;;;5136441;27;20026;-66
2023/08/24 07:44:18;;;;;;;6.90;4.90;;;40.70;41.70;;;;;;5136339;27;20098;-66
2023/08/24 07:46:44;;;;;;;6.95;5.25;;;40.80;40.10;;;;;;5136706;27;20051;-66
2023/08/24 07:49:10;;;;;;;9.57;4.88;;;41.00;40.20;;;;;;5135823;27;20031;-66
2023/08/24 07:51:36;;;;;;;9.18;5.18;;;41.60;39.40;;;;;;5135672;27;20450;-66
2023/08/24 07:54:04;;;;;;;9.52;5.40;;;41.90;38.90;;;;;;5132841;27;20035;-66
2023/08/24 07:56:30;;;;;;;6.82;4.82;;;42.10;37.90;;;;;;5135941;27;20030;-66
2023/08/24 07:58:55;;;;;;;6.22;4.88;;;42.50;38.00;;;;;;5136108;27;20031;-66
2023/08/24 08:01:21;;;;;;;7.13;5.50;;;42.50;37.30;;;;;;5115656;27;20130;-67
2023/08/24 08:03:47;;;;;;;9.02;5.53;;;42.50;36.60;;;;;;5115779;28;20059;-67
2023/08/24 08:06:13;;;;;;;10.23;5.28;;;42.80;37.00;;;;;;5115629;28;20045;-67
2023/08/24 08:08:39;;;;;;;7.80;5.00;;;42.80;36.50;;;;;;5116425;28;20023;-66
2023/08/24 08:11:05;;;;;;;10.85;5.15;;;42.70;36.50;;;;;;5117095;28;20357;-67
2023/08/24 08:13:31;;;;;;;8.85;5.30;;;42.40;36.40;;;;;;5116740;28;20027;-67
2023/08/24 08:16:07;;;;;;;11.57;5.97;;;42.20;36.50;;;;;;5117331;28;20395;-66
2023/08/24 08:18:33;;;;;;;11.05;5.90;;;42.30;36.60;;;;;;5114249;28;20067;-67
2023/08/24 08:20:59;;;;;;;6.90;4.90;;;42.40;36.90;;;;;;5114792;28;20028;-67
2023/08/24 08:23:25;;;;;;;14.23;7.63;;;42.10;36.40;;;;;;5115319;28;20024;-68
2023/08/24 08:25:51;;;;;;;9.88;5.35;;;42.00;36.40;;;;;;5118654;27;20019;-66
2023/08/24 08:28:17;;;;;;;8.57;5.63;;;42.00;36.30;;;;;;5135133;27;20055;-69
2023/08/24 08:30:44;;;;;;;11.98;5.57;;;42.00;36.60;;;;;;5135538;27;20075;-66
2023/08/24 08:33:10;;;;;;;10.10;5.15;;;41.60;37.00;;;;;;5135696;27;20031;-67
2023/08/24 08:35:37;;;;;;;9.00;4.88;;;41.00;37.10;;;;;;5135237;27;20024;-67
2023/08/24 08:38:03;;;;;;;14.10;6.00;;;40.40;37.90;;;;;;5135796;27;20026;-66
2023/08/24 08:40:30;;;;;;;9.82;5.28;;;39.60;38.20;;;;;;5134947;27;20106;-67
2023/08/24 08:42:57;;;;;;;15.70;5.15;;;39.30;39.00;;;;;;5135619;27;20038;-67
2023/08/24 08:45:26;;;;;;;10.15;5.40;;;39.30;39.70;;;;;;5134879;27;20031;-68
2023/08/24 08:47:53;;;;;;;9.30;5.13;;;39.00;39.50;;;;;;5135272;27;20174;-68
2023/08/24 08:50:19;;;;;;;11.82;5.22;;;38.70;39.90;;;;;;5098285;27;20608;-68
2023/08/24 08:52:45;;;;;;;12.95;5.20;;;38.20;40.70;;;;;;5135433;27;20015;-68
2023/08/24 08:55:11;;;;;;;9.90;5.00;;;38.20;40.90;;;;;;5135578;27;20550;-67
2023/08/24 08:57:39;;;;;;;8.10;4.70;;;38.00;41.50;;;;;;5135191;27;20343;-67
2023/08/24 09:00:07;;;;;;;9.15;4.82;;;37.90;42.10;;;;;;5135206;27;20027;-67
2023/08/24 09:02:33;;;;;;;7.72;4.70;;;37.80;41.30;;;;;;5134747;27;20034;-67
2023/08/24 09:04:59;;;;;;;8.73;4.57;;;37.90;42.00;;;;;;5135354;27;20019;-67
2023/08/24 09:07:25;;;;;;;9.85;5.32;;;37.70;41.90;;;;;;5134640;27;20087;-66
2023/08/24 09:09:51;;;;;;;5.88;4.70;;;37.70;42.30;;;;;;5134787;27;20027;-67
2023/08/24 09:12:16;;;;;;;12.45;4.68;;;37.60;42.30;;;;;;5134981;27;20065;-66
2023/08/24 09:15:04;;;;;;;10.40;4.70;;;37.60;42.60;;;;;;5134425;27;20432;-67
2023/08/24 09:17:29;;;;;;;6.72;4.53;;;37.40;42.60;;;;;;5134080;27;20053;-67
2023/08/24 09:19:58;;;;;;;15.98;5.45;;;37.20;42.80;;;;;;5134501;27;20063;-67
2023/08/24 09:22:24;;;;;;;8.40;4.38;;;36.70;42.40;;;;;;5134602;27;20091;-67
2023/08/24 09:24:50;;;;;;;9.98;4.93;;;36.50;43.90;;;;;;5134692;27;20405;-67
2023/08/24 09:27:16;;;;;;;11.02;4.80;;;36.20;43.20;;;;;;5134048;27;20019;-67
2023/08/24 09:29:42;;;;;;;8.23;4.90;;;35.80;43.60;;;;;;5133631;27;20487;-67
2023/08/24 09:32:08;;;;;;;8.38;4.82;;;35.60;43.70;;;;;;5133904;27;20070;-67
2023/08/24 09:34:36;;;;;;;8.65;4.85;;;35.40;44.10;;;;;;5133964;27;20463;-66
2023/08/24 09:37:04;;;;;;;7.32;4.13;;;35.20;44.10;;;;;;5134437;27;20031;-67
2023/08/24 09:39:29;;;;;;;13.43;4.35;;;35.00;44.70;;;;;;5134149;27;20040;-68
2023/08/24 09:42:02;;;;;;;10.95;4.38;;;35.20;44.80;;;;;;5134105;27;20019;-67
2023/08/24 09:44:28;;;;;;;14.32;4.47;;;35.30;45.10;;;;;;5133890;27;20038;-67
2023/08/24 09:46:54;;;;;;;10.70;4.03;;;35.20;44.00;;;;;;5134180;27;20019;-66
2023/08/24 09:49:20;;;;;;;5.88;4.47;;;35.10;44.70;;;;;;5133633;27;20051;-68
2023/08/24 09:51:46;;;;;;;8.25;4.90;;;34.90;44.70;;;;;;5133739;27;20463;-66
2023/08/24 09:54:13;;;;;;;8.30;4.55;;;34.90;45.20;;;;;;5134064;27;20123;-67
2023/08/24 09:56:43;;;;;;;9.90;4.30;;;34.70;44.90;;;;;;5133522;27;20035;-67
2023/08/24 09:59:13;;;;;;;10.00;4.18;;;34.80;46.10;;;;;;5133969;27;20042;-67
2023/08/24 10:01:42;;;;;;;8.38;4.43;;;34.90;45.40;;;;;;5131405;27;20042;-67
2023/08/24 10:04:09;;;;;;;5.88;3.85;;;34.60;44.90;;;;;;5113440;27;20539;-67
2023/08/24 10:06:36;;;;;;;14.23;4.25;;;34.40;45.30;;;;;;5112829;28;20019;-67
2023/08/24 10:09:07;;;;;;;10.90;4.28;;;34.30;46.00;;;;;;5112823;28;20380;-67
2023/08/24 10:11:36;;;;;;;8.30;4.78;;;34.20;45.40;;;;;;5112608;28;20110;-68
2023/08/24 10:14:26;;;;;;;12.02;4.90;;;34.10;46.00;;;;;;5113151;28;20047;-68
2023/08/24 10:16:52;;;;;;;8.57;4.45;;;34.20;46.80;;;;;;5113524;28;20051;-67
2023/08/24 10:19:20;;;;;;;8.48;4.53;;;34.30;46.80;;;;;;5113277;28;20476;-67
2023/08/24 10:21:46;;;;;;;10.23;4.40;;;34.50;47.20;;;;;;5118607;27;20095;-67
2023/08/24 10:24:13;;;;;;;8.32;3.88;;;34.50;45.40;;;;;;5133699;27;20030;-67
2023/08/24 10:26:40;;;;;;;7.55;4.43;;;34.40;45.30;;;;;;5133622;27;20475;-67
2023/08/24 10:29:07;;;;;;;8.70;4.88;;;34.30;45.60;;;;;;5133132;27;20471;-67
2023/08/24 10:31:34;;;;;;;7.38;4.80;;;34.20;46.10;;;;;;5133025;27;20547;-67
2023/08/24 10:34:01;;;;;;;11.88;4.72;;;34.10;46.10;;;;;;5133347;28;20024;-67
2023/08/24 10:36:28;;;;;;;7.60;4.82;;;34.20;46.40;;;;;;5133148;28;20027;-67
2023/08/24 10:38:58;;;;;;;14.05;5.22;;;34.20;46.10;;;;;;5133400;28;20031;-67
2023/08/24 10:41:27;;;;;;;10.52;4.93;;;34.00;46.10;;;;;;5133366;27;20046;-67
2023/08/24 10:44:05;;;;;;;9.10;4.40;;;33.90;46.30;;;;;;5136632;27;20356;-67
2023/08/24 10:46:34;;;;;;;8.65;4.70;;;33.90;47.10;;;;;;5137516;27;20031;-67
2023/08/24 10:49:03;;;;;;;10.63;4.07;;;33.90;46.40;;;;;;5137516;27;20034;-67
2023/08/24 10:51:30;;;;;;;10.38;4.75;;;33.80;46.30;;;;;;5137025;27;20035;-67
2023/08/24 10:54:00;;;;;;;10.60;4.75;;;33.70;46.30;;;;;;5137717;27;20039;-68
2023/08/24 10:56:39;;;;;;;9.48;4.40;;;33.70;46.70;;;;;;5137724;27;20094;-67
2023/08/24 10:59:13;;;;;;;7.53;4.05;;;33.80;46.40;;;;;;5137722;27;20066;-67
2023/08/24 11:01:40;;;;;;;15.82;4.63;;;33.90;46.50;;;;;;5137242;27;20023;-67
2023/08/24 11:04:07;;;;;;;12.85;5.07;;;33.90;46.30;;;;;;5137519;27;20019;-66
2023/08/24 11:06:33;;;;;;;11.00;4.20;;;33.90;46.50;;;;;;5137345;27;20023;-68
2023/08/24 11:09:13;;;;;;;8.77;4.70;;;33.90;46.40;;;;;;5137220;27;20042;-68
2023/08/24 11:11:40;;;;;;;6.30;4.32;;;33.90;46.60;;;;;;5137002;27;20035;-67
2023/08/24 11:14:21;;;;;;;9.35;4.60;;;34.00;47.10;;;;;;5137247;27;20054;-66
2023/08/24 11:16:48;;;;;;;6.78;4.60;;;34.20;46.80;;;;;;5119115;27;20717;-68
2023/08/24 11:19:15;;;;;;;11.57;4.95;;;34.40;47.00;;;;;;5137090;27;20368;-67
2023/08/24 11:21:42;;;;;;;8.93;4.22;;;34.40;46.30;;;;;;5136735;27;20027;-67
2023/08/24 11:24:17;;;;;;;14.45;5.00;;;34.40;46.00;;;;;;5137042;27;20033;-67
2023/08/24 11:26:44;;;;;;;10.65;4.78;;;34.30;45.70;;;;;;5136243;27;20463;-68
2023/08/24 11:29:11;;;;;;;6.68;4.28;;;34.40;45.50;;;;;;5136650;27;20070;-68
2023/08/24 11:31:37;;;;;;;10.20;4.95;;;34.40;46.30;;;;;;5136478;27;20027;-68
2023/08/24 11:34:04;;;;;;;6.65;4.50;;;34.50;45.50;;;;;;5136888;27;20023;-67
2023/08/24 11:36:43;;;;;;;8.02;4.22;;;34.50;45.70;;;;;;5136541;27;20019;-71
2023/08/24 11:39:19;;;;;;;8.45;4.50;;;34.50;45.80;;;;;;5136702;27;20027;-67
2023/08/24 11:42:05;;;;;;;9.90;4.13;;;34.70;45.40;;;;;;5136399;27;20056;-68
2023/08/24 11:44:46;;;;;;;8.93;4.70;;;34.60;45.60;;;;;;5135770;27;20034;-68
2023/08/24 11:47:12;;;;;;;8.65;4.47;;;34.70;45.30;;;;;;5136404;27;20019;-67
2023/08/24 11:49:38;;;;;;;9.68;4.75;;;34.50;45.00;;;;;;5136103;27;20055;-67
2023/08/24 11:52:04;;;;;;;11.23;5.25;;;34.50;45.10;;;;;;5136791;27;20027;-68
2023/08/24 11:54:32;;;;;;;11.68;4.78;;;34.20;45.20;;;;;;5136202;27;20098;-67
2023/08/24 11:56:58;;;;;;;6.72;4.35;;;34.10;45.50;;;;;;5136289;27;20027;-67
2023/08/24 11:59:25;;;;;;;14.38;4.75;;;34.00;45.90;;;;;;5136731;27;20172;-67
2023/08/24 12:01:52;;;;;;;9.35;4.65;;;34.10;45.70;;;;;;5135701;27;20334;-67
2023/08/24 12:04:18;;;;;;;12.80;4.60;;;34.10;45.80;;;;;;5136513;27;20190;-67
2023/08/24 12:06:44;;;;;;;8.50;4.10;;;34.00;46.10;;;;;;5135773;27;20102;-67
2023/08/24 12:09:10;;;;;;;9.32;4.90;;;34.10;45.50;;;;;;5136129;27;20037;-67
2023/08/24 12:11:36;;;;;;;9.60;4.75;;;33.90;45.60;;;;;;5132284;27;20502;-68
2023/08/24 12:14:02;;;;;;;5.25;4.60;;;33.90;46.30;;;;;;5136289;27;20046;-67
2023/08/24 12:16:32;;;;;;;13.05;4.03;;;33.90;46.20;;;;;;5136140;27;20068;-67
2023/08/24 12:19:00;;;;;;;10.83;4.00;;;33.90;46.70;;;;;;5136157;27;20027;-67
2023/08/24 12:21:26;;;;;;;7.93;4.50;;;33.90;46.50;;;;;;5135697;27;20046;-67
2023/08/24 12:24:06;;;;;;;8.55;5.10;;;33.90;46.10;;;;;;5135586;27;20388;-68
2023/08/24 12:26:35;;;;;;;9.32;4.72;;;33.70;46.20;;;;;;5136212;27;20428;-68
2023/08/24 12:29:09;;;;;;;9.45;4.43;;;33.70;46.60;;;;;;5136061;27;20127;-67
2023/08/24 12:31:36;;;;;;;9.50;5.22;;;33.60;46.40;;;;;;5117197;27;20031;-66
2023/08/24 12:34:03;;;;;;;8.23;4.93;;;33.50;46.60;;;;;;5135817;27;20031;-67
2023/08/24 12:36:29;;;;;;;8.77;4.55;;;33.40;46.60;;;;;;5135909;27;20063;-67
2023/08/24 12:38:55;;;;;;;5.32;4.03;;;33.50;46.80;;;;;;5135354;27;20031;-67
2023/08/24 12:41:22;;;;;;;8.57;4.90;;;33.50;47.00;;;;;;5135690;27;20020;-67
2023/08/24 12:43:47;;;;;;;6.00;4.20;;;33.50;47.30;;;;;;5117064;27;20019;-67